sensor_id;sensor_type;location;lat;lon;timestamp;pressure;altitude;pressure_sealevel;temperature;humidity
78643;BME280;67954;47.618;17.606;2023-02-28T00:00:30;101327.88;;;2.79;61.41
78643;BME280;67954;47.618;17.606;2023-02-28T00:01:01;101327.09;;;2.77;60.51
78643;BME280;67954;47.618;17.606;2023-02-28T00:01:33;101329.81;;;2.75;61.11
78643;BME280;67954;47.618;17.606;2023-02-28T00:02:05;101322.94;;;2.71;61.10
78643;BME280;67954;47.618;17.606;2023-02-28T00:02:36;101321.34;;;2.67;60.50
78643;BME280;67954;47.618;17.606;2023-02-28T00:03:07;101324.06;;;2.66;60.80
78643;BME280;67954;47.618;17.606;2023-02-28T00:03:40;101325.88;;;2.65;60.62
78643;BME280;67954;47.618;17.606;2023-02-28T00:04:10;101324.81;;;2.69;60.74
78643;BME280;67954;47.618;17.606;2023-02-28T00:04:41;101326.72;;;2.66;61.06
78643;BME280;67954;47.618;17.606;2023-02-28T00:05:16;101328.31;;;2.70;61.12
78643;BME280;67954;47.618;17.606;2023-02-28T00:05:47;101320.50;;;2.67;60.84
78643;BME280;67954;47.618;17.606;2023-02-28T00:06:18;101324.38;;;2.60;61.02
78643;BME280;67954;47.618;17.606;2023-02-28T00:06:51;101326.31;;;2.56;60.90
78643;BME280;67954;47.618;17.606;2023-02-28T00:07:22;101326.16;;;2.59;61.19
78643;BME280;67954;47.618;17.606;2023-02-28T00:07:53;101325.44;;;2.56;61.15
78643;BME280;67954;47.618;17.606;2023-02-28T00:08:25;101329.59;;;2.61;61.34
78643;BME280;67954;47.618;17.606;2023-02-28T00:08:57;101326.06;;;2.61;61.28
78643;BME280;67954;47.618;17.606;2023-02-28T00:09:29;101328.88;;;2.58;61.44
78643;BME280;67954;47.618;17.606;2023-02-28T00:10:00;101321.94;;;2.55;61.43
78643;BME280;67954;47.618;17.606;2023-02-28T00:10:31;101328.16;;;2.54;61.25
78643;BME280;67954;47.618;17.606;2023-02-28T00:11:03;101331.59;;;2.56;60.97
78643;BME280;67954;47.618;17.606;2023-02-28T00:11:36;101329.69;;;2.60;60.72
78643;BME280;67954;47.618;17.606;2023-02-28T00:12:08;101330.69;;;2.57;61.03
78643;BME280;67954;47.618;17.606;2023-02-28T00:12:41;101339.50;;;2.58;61.09
78643;BME280;67954;47.618;17.606;2023-02-28T00:13:12;101335.06;;;2.58;60.97
78643;BME280;67954;47.618;17.606;2023-02-28T00:13:45;101334.19;;;2.58;61.09
78643;BME280;67954;47.618;17.606;2023-02-28T00:14:16;101332.41;;;2.58;60.79
78643;BME280;67954;47.618;17.606;2023-02-28T00:14:49;101329.88;;;2.55;60.55
78643;BME280;67954;47.618;17.606;2023-02-28T00:15:20;101331.75;;;2.53;60.95
78643;BME280;67954;47.618;17.606;2023-02-28T00:15:59;101330.22;;;2.47;61.24
78643;BME280;67954;47.618;17.606;2023-02-28T00:16:31;101327.28;;;2.54;60.69
78643;BME280;67954;47.618;17.606;2023-02-28T00:17:02;101332.53;;;2.55;60.71
78643;BME280;67954;47.618;17.606;2023-02-28T00:17:33;101332.47;;;2.57;60.83
78643;BME280;67954;47.618;17.606;2023-02-28T00:18:05;101334.47;;;2.51;60.68
78643;BME280;67954;47.618;17.606;2023-02-28T00:18:35;101335.63;;;2.46;60.84
78643;BME280;67954;47.618;17.606;2023-02-28T00:19:08;101330.16;;;2.49;61.19
78643;BME280;67954;47.618;17.606;2023-02-28T00:19:39;101334.59;;;2.48;61.08
78643;BME280;67954;47.618;17.606;2023-02-28T00:20:12;101332.88;;;2.47;60.88
78643;BME280;67954;47.618;17.606;2023-02-28T00:20:43;101337.19;;;2.50;60.30
78643;BME280;67954;47.618;17.606;2023-02-28T00:21:14;101336.19;;;2.53;60.70
78643;BME280;67954;47.618;17.606;2023-02-28T00:21:46;101338.91;;;2.51;60.23
78643;BME280;67954;47.618;17.606;2023-02-28T00:22:21;101336.38;;;2.48;60.49
78643;BME280;67954;47.618;17.606;2023-02-28T00:22:53;101333.66;;;2.49;60.99
78643;BME280;67954;47.618;17.606;2023-02-28T00:23:25;101336.19;;;2.53;60.77
78643;BME280;67954;47.618;17.606;2023-02-28T00:23:56;101347.78;;;2.50;60.58
78643;BME280;67954;47.618;17.606;2023-02-28T00:24:27;101339.03;;;2.48;60.14
78643;BME280;67954;47.618;17.606;2023-02-28T00:24:58;101339.91;;;2.48;59.62
78643;BME280;67954;47.618;17.606;2023-02-28T00:25:29;101335.53;;;2.47;59.72
78643;BME280;67954;47.618;17.606;2023-02-28T00:26:00;101342.72;;;2.45;59.27
78643;BME280;67954;47.618;17.606;2023-02-28T00:26:32;101337.75;;;2.38;57.84
78643;BME280;67954;47.618;17.606;2023-02-28T00:27:03;101341.53;;;2.32;57.57
78643;BME280;67954;47.618;17.606;2023-02-28T00:27:34;101342.03;;;2.40;58.08
78643;BME280;67954;47.618;17.606;2023-02-28T00:28:05;101341.91;;;2.43;57.90
78643;BME280;67954;47.618;17.606;2023-02-28T00:28:36;101343.63;;;2.44;58.20
78643;BME280;67954;47.618;17.606;2023-02-28T00:29:07;101345.44;;;2.44;58.08
78643;BME280;67954;47.618;17.606;2023-02-28T00:29:39;101346.22;;;2.46;57.64
78643;BME280;67954;47.618;17.606;2023-02-28T00:30:12;101343.56;;;2.46;57.63
78643;BME280;67954;47.618;17.606;2023-02-28T00:30:44;101346.06;;;2.49;58.08
78643;BME280;67954;47.618;17.606;2023-02-28T00:31:16;101344.34;;;2.48;58.34
78643;BME280;67954;47.618;17.606;2023-02-28T00:31:47;101351.72;;;2.41;57.96
78643;BME280;67954;47.618;17.606;2023-02-28T00:32:18;101348.16;;;2.42;57.60
78643;BME280;67954;47.618;17.606;2023-02-28T00:32:50;101347.91;;;2.47;57.30
78643;BME280;67954;47.618;17.606;2023-02-28T00:33:21;101344.44;;;2.46;57.06
78643;BME280;67954;47.618;17.606;2023-02-28T00:33:52;101339.03;;;2.48;57.30
78643;BME280;67954;47.618;17.606;2023-02-28T00:34:25;101345.44;;;2.44;57.81
78643;BME280;67954;47.618;17.606;2023-02-28T00:34:56;101351.72;;;2.41;57.81
78643;BME280;67954;47.618;17.606;2023-02-28T00:35:27;101345.56;;;2.41;57.77
78643;BME280;67954;47.618;17.606;2023-02-28T00:36:03;101348.09;;;2.44;58.10
78643;BME280;67954;47.618;17.606;2023-02-28T00:36:35;101352.47;;;2.45;58.09
78643;BME280;67954;47.618;17.606;2023-02-28T00:37:07;101346.34;;;2.43;57.95
78643;BME280;67954;47.618;17.606;2023-02-28T00:37:38;101345.44;;;2.44;58.31
78643;BME280;67954;47.618;17.606;2023-02-28T00:38:10;101347.22;;;2.43;58.19
78643;BME280;67954;47.618;17.606;2023-02-28T00:38:41;101349.88;;;2.43;58.32
78643;BME280;67954;47.618;17.606;2023-02-28T00:39:12;101354.25;;;2.44;57.93
78643;BME280;67954;47.618;17.606;2023-02-28T00:39:44;101349.81;;;2.45;57.82
78643;BME280;67954;47.618;17.606;2023-02-28T00:40:15;101350.00;;;2.40;57.82
78643;BME280;67954;47.618;17.606;2023-02-28T00:40:46;101348.28;;;2.39;58.11
78643;BME280;67954;47.618;17.606;2023-02-28T00:41:17;101356.16;;;2.41;57.99
78643;BME280;67954;47.618;17.606;2023-02-28T00:41:48;101357.16;;;2.38;58.29
78643;BME280;67954;47.618;17.606;2023-02-28T00:42:19;101353.78;;;2.35;58.18
78643;BME280;67954;47.618;17.606;2023-02-28T00:42:51;101348.34;;;2.38;58.05
78643;BME280;67954;47.618;17.606;2023-02-28T00:43:22;101350.94;;;2.39;57.93
78643;BME280;67954;47.618;17.606;2023-02-28T00:43:53;101349.22;;;2.38;57.58
78643;BME280;67954;47.618;17.606;2023-02-28T00:44:24;101352.06;;;2.34;57.64
78643;BME280;67954;47.618;17.606;2023-02-28T00:44:55;101356.22;;;2.39;57.62
78643;BME280;67954;47.618;17.606;2023-02-28T00:45:26;101351.78;;;2.40;57.77
78643;BME280;67954;47.618;17.606;2023-02-28T00:45:58;101353.53;;;2.41;57.62
78643;BME280;67954;47.618;17.606;2023-02-28T00:46:28;101355.38;;;2.39;57.73
78643;BME280;67954;47.618;17.606;2023-02-28T00:47:00;101358.09;;;2.37;57.37
78643;BME280;67954;47.618;17.606;2023-02-28T00:47:32;101354.56;;;2.37;57.03
78643;BME280;67954;47.618;17.606;2023-02-28T00:48:03;101357.53;;;2.31;56.66
78643;BME280;67954;47.618;17.606;2023-02-28T00:48:35;101355.56;;;2.34;56.35
78643;BME280;67954;47.618;17.606;2023-02-28T00:49:06;101362.47;;;2.38;56.78
78643;BME280;67954;47.618;17.606;2023-02-28T00:49:39;101352.66;;;2.40;56.87
78643;BME280;67954;47.618;17.606;2023-02-28T00:50:10;101356.97;;;2.43;57.48
78643;BME280;67954;47.618;17.606;2023-02-28T00:50:42;101347.47;;;2.37;57.39
78643;BME280;67954;47.618;17.606;2023-02-28T00:51:13;101356.03;;;2.44;56.66
78643;BME280;67954;47.618;17.606;2023-02-28T00:51:44;101355.25;;;2.42;56.87
78643;BME280;67954;47.618;17.606;2023-02-28T00:52:16;101363.25;;;2.40;56.62
78643;BME280;67954;47.618;17.606;2023-02-28T00:52:47;101352.72;;;2.39;57.00
78643;BME280;67954;47.618;17.606;2023-02-28T00:53:17;101354.31;;;2.43;56.72
78643;BME280;67954;47.618;17.606;2023-02-28T00:53:49;101358.53;;;2.47;56.96
78643;BME280;67954;47.618;17.606;2023-02-28T00:54:21;101357.69;;;2.46;57.30
78643;BME280;67954;47.618;17.606;2023-02-28T00:54:52;101358.47;;;2.48;57.42
78643;BME280;67954;47.618;17.606;2023-02-28T00:55:24;101360.34;;;2.46;57.06
78643;BME280;67954;47.618;17.606;2023-02-28T00:55:55;101353.31;;;2.45;57.23
78643;BME280;67954;47.618;17.606;2023-02-28T00:56:26;101361.13;;;2.48;57.06
78643;BME280;67954;47.618;17.606;2023-02-28T00:56:58;101358.94;;;2.38;56.42
78643;BME280;67954;47.618;17.606;2023-02-28T00:57:29;101362.34;;;2.41;56.30
78643;BME280;67954;47.618;17.606;2023-02-28T00:57:59;101359.56;;;2.44;56.61
78643;BME280;67954;47.618;17.606;2023-02-28T00:58:31;101363.00;;;2.46;56.21
78643;BME280;67954;47.618;17.606;2023-02-28T00:59:02;101366.34;;;2.50;56.14
78643;BME280;67954;47.618;17.606;2023-02-28T00:59:33;101358.41;;;2.50;56.29
78643;BME280;67954;47.618;17.606;2023-02-28T01:00:06;101367.22;;;2.50;55.95
78643;BME280;67954;47.618;17.606;2023-02-28T01:00:37;101367.94;;;2.54;56.27
78643;BME280;67954;47.618;17.606;2023-02-28T01:01:08;101370.72;;;2.51;56.04
78643;BME280;67954;47.618;17.606;2023-02-28T01:01:40;101368.06;;;2.51;55.62
78643;BME280;67954;47.618;17.606;2023-02-28T01:02:11;101365.38;;;2.53;56.14
78643;BME280;67954;47.618;17.606;2023-02-28T01:02:42;101371.59;;;2.51;55.73
78643;BME280;67954;47.618;17.606;2023-02-28T01:03:15;101366.34;;;2.50;55.91
78643;BME280;67954;47.618;17.606;2023-02-28T01:03:46;101368.00;;;2.53;55.55
78643;BME280;67954;47.618;17.606;2023-02-28T01:04:17;101363.56;;;2.53;55.73
78643;BME280;67954;47.618;17.606;2023-02-28T01:04:50;101364.56;;;2.50;55.71
78643;BME280;67954;47.618;17.606;2023-02-28T01:05:21;101369.06;;;2.48;55.25
78643;BME280;67954;47.618;17.606;2023-02-28T01:05:52;101361.91;;;2.50;55.51
78643;BME280;67954;47.618;17.606;2023-02-28T01:06:24;101370.72;;;2.51;55.62
78643;BME280;67954;47.618;17.606;2023-02-28T01:06:55;101368.16;;;2.49;56.04
78643;BME280;67954;47.618;17.606;2023-02-28T01:07:26;101368.00;;;2.53;55.19
78643;BME280;67954;47.618;17.606;2023-02-28T01:07:58;101373.31;;;2.53;55.40
78643;BME280;67954;47.618;17.606;2023-02-28T01:08:28;101374.97;;;2.55;55.38
78643;BME280;67954;47.618;17.606;2023-02-28T01:09:00;101367.94;;;2.54;55.78
78643;BME280;67954;47.618;17.606;2023-02-28T01:09:31;101368.88;;;2.53;55.65
78643;BME280;67954;47.618;17.606;2023-02-28T01:10:03;101372.31;;;2.55;55.65
78643;BME280;67954;47.618;17.606;2023-02-28T01:10:33;101378.63;;;2.53;55.67
78643;BME280;67954;47.618;17.606;2023-02-28T01:11:08;101376.84;;;2.53;55.71
78643;BME280;67954;47.618;17.606;2023-02-28T01:11:39;101375.19;;;2.50;55.65
78643;BME280;67954;47.618;17.606;2023-02-28T01:12:12;101371.53;;;2.53;55.78
78643;BME280;67954;47.618;17.606;2023-02-28T01:12:43;101375.84;;;2.56;55.72
78643;BME280;67954;47.618;17.606;2023-02-28T01:13:15;101376.78;;;2.55;55.71
78643;BME280;67954;47.618;17.606;2023-02-28T01:13:46;101373.19;;;2.56;55.86
78643;BME280;67954;47.618;17.606;2023-02-28T01:14:18;101377.56;;;2.57;56.15
78643;BME280;67954;47.618;17.606;2023-02-28T01:14:49;101376.78;;;2.55;55.76
78643;BME280;67954;47.618;17.606;2023-02-28T01:15:20;101377.63;;;2.55;55.70
78643;BME280;67954;47.618;17.606;2023-02-28T01:15:55;101376.78;;;2.55;56.07
78643;BME280;67954;47.618;17.606;2023-02-28T01:16:27;101378.50;;;2.56;56.87
78643;BME280;67954;47.618;17.606;2023-02-28T01:16:58;101382.06;;;2.55;56.87
78643;BME280;67954;47.618;17.606;2023-02-28T01:17:30;101376.84;;;2.53;57.07
78643;BME280;67954;47.618;17.606;2023-02-28T01:18:00;101388.44;;;2.50;57.39
78643;BME280;67954;47.618;17.606;2023-02-28T01:18:31;101382.34;;;2.48;57.66
78643;BME280;67954;47.618;17.606;2023-02-28T01:19:03;101383.19;;;2.49;57.62
78643;BME280;67954;47.618;17.606;2023-02-28T01:19:34;101388.56;;;2.47;57.12
78643;BME280;67954;47.618;17.606;2023-02-28T01:20:08;101383.25;;;2.47;57.75
78643;BME280;67954;47.618;17.606;2023-02-28T01:20:41;101376.25;;;2.46;57.91
78643;BME280;67954;47.618;17.606;2023-02-28T01:21:14;101385.00;;;2.48;57.77
78643;BME280;67954;47.618;17.606;2023-02-28T01:21:45;101381.56;;;2.46;58.14
78643;BME280;67954;47.618;17.606;2023-02-28T01:22:17;101378.91;;;2.46;58.01
78643;BME280;67954;47.618;17.606;2023-02-28T01:22:47;101377.19;;;2.45;58.26
78643;BME280;67954;47.618;17.606;2023-02-28T01:23:18;101384.22;;;2.46;57.90
78643;BME280;67954;47.618;17.606;2023-02-28T01:23:50;101376.25;;;2.46;57.64
78643;BME280;67954;47.618;17.606;2023-02-28T01:24:21;101382.50;;;2.45;58.05
78643;BME280;67954;47.618;17.606;2023-02-28T01:24:52;101380.84;;;2.43;57.83
78643;BME280;67954;47.618;17.606;2023-02-28T01:25:24;101383.44;;;2.44;57.88
78643;BME280;67954;47.618;17.606;2023-02-28T01:25:55;101387.06;;;2.42;58.37
78643;BME280;67954;47.618;17.606;2023-02-28T01:26:25;101390.59;;;2.42;58.71
78643;BME280;67954;47.618;17.606;2023-02-28T01:26:57;101382.56;;;2.44;58.89
78643;BME280;67954;47.618;17.606;2023-02-28T01:27:28;101384.41;;;2.42;58.95
78643;BME280;67954;47.618;17.606;2023-02-28T01:27:59;101387.13;;;2.40;58.66
78643;BME280;67954;47.618;17.606;2023-02-28T01:28:31;101385.47;;;2.38;58.36
78643;BME280;67954;47.618;17.606;2023-02-28T01:29:02;101390.84;;;2.36;58.55
78643;BME280;67954;47.618;17.606;2023-02-28T01:29:33;101385.47;;;2.38;58.41
78643;BME280;67954;47.618;17.606;2023-02-28T01:30:06;101385.34;;;2.41;58.71
78643;BME280;67954;47.618;17.606;2023-02-28T01:30:37;101387.25;;;2.37;58.62
78643;BME280;67954;47.618;17.606;2023-02-28T01:31:08;101385.41;;;2.39;58.77
78643;BME280;67954;47.618;17.606;2023-02-28T01:31:39;101384.59;;;2.37;59.06
78643;BME280;67954;47.618;17.606;2023-02-28T01:32:11;101390.03;;;2.34;58.92
78643;BME280;67954;47.618;17.606;2023-02-28T01:32:42;101378.50;;;2.35;59.16
78643;BME280;67954;47.618;17.606;2023-02-28T01:33:13;101388.91;;;2.40;59.31
78643;BME280;67954;47.618;17.606;2023-02-28T01:33:45;101379.97;;;2.42;59.13
78643;BME280;67954;47.618;17.606;2023-02-28T01:34:17;101383.63;;;2.40;58.65
78643;BME280;67954;47.618;17.606;2023-02-28T01:34:49;101387.06;;;2.42;59.17
78643;BME280;67954;47.618;17.606;2023-02-28T01:35:22;101384.41;;;2.42;59.37
78643;BME280;67954;47.618;17.606;2023-02-28T01:35:58;101381.75;;;2.42;59.79
78643;BME280;67954;47.618;17.606;2023-02-28T01:36:29;101384.28;;;2.45;59.29
78643;BME280;67954;47.618;17.606;2023-02-28T01:37:01;101382.50;;;2.45;59.49
78643;BME280;67954;47.618;17.606;2023-02-28T01:37:32;101386.94;;;2.45;59.37
78643;BME280;67954;47.618;17.606;2023-02-28T01:38:02;101384.47;;;2.40;59.40
78643;BME280;67954;47.618;17.606;2023-02-28T01:38:34;101387.88;;;2.44;59.64
78643;BME280;67954;47.618;17.606;2023-02-28T01:39:05;101388.00;;;2.41;59.71
78643;BME280;67954;47.618;17.606;2023-02-28T01:39:36;101386.22;;;2.41;59.74
78643;BME280;67954;47.618;17.606;2023-02-28T01:40:09;101392.50;;;2.39;59.55
78643;BME280;67954;47.618;17.606;2023-02-28T01:40:40;101390.72;;;2.39;59.48
78643;BME280;67954;47.618;17.606;2023-02-28T01:41:17;101387.19;;;2.39;59.88
78643;BME280;67954;47.618;17.606;2023-02-28T01:41:48;101387.13;;;2.40;59.60
78643;BME280;67954;47.618;17.606;2023-02-28T01:42:19;101387.19;;;2.39;58.89
78643;BME280;67954;47.618;17.606;2023-02-28T01:42:50;101384.66;;;2.36;59.10
78643;BME280;67954;47.618;17.606;2023-02-28T01:43:24;101389.91;;;2.37;59.33
78643;BME280;67954;47.618;17.606;2023-02-28T01:43:59;101386.28;;;2.40;59.18
78643;BME280;67954;47.618;17.606;2023-02-28T01:44:57;101387.13;;;2.40;59.57
78643;BME280;67954;47.618;17.606;2023-02-28T01:45:31;101386.22;;;2.41;59.18
78643;BME280;67954;47.618;17.606;2023-02-28T01:46:02;101383.63;;;2.40;59.41
78643;BME280;67954;47.618;17.606;2023-02-28T01:46:34;101385.34;;;2.41;59.06
78643;BME280;67954;47.618;17.606;2023-02-28T01:47:07;101386.28;;;2.40;59.31
78643;BME280;67954;47.618;17.606;2023-02-28T01:47:41;101379.31;;;2.37;59.30
78643;BME280;67954;47.618;17.606;2023-02-28T01:48:13;101391.94;;;2.32;59.50
78643;BME280;67954;47.618;17.606;2023-02-28T01:48:49;101385.75;;;2.32;59.30
78643;BME280;67954;47.618;17.606;2023-02-28T01:49:22;101387.56;;;2.31;59.22
78643;BME280;67954;47.618;17.606;2023-02-28T01:49:53;101383.88;;;2.34;59.13
78643;BME280;67954;47.618;17.606;2023-02-28T01:50:28;101379.44;;;2.34;59.31
78643;BME280;67954;47.618;17.606;2023-02-28T01:51:05;101383.03;;;2.33;59.18
78643;BME280;67954;47.618;17.606;2023-02-28T01:51:41;101387.63;;;2.30;59.16
78643;BME280;67954;47.618;17.606;2023-02-28T01:52:16;101385.81;;;2.30;59.32
78643;BME280;67954;47.618;17.606;2023-02-28T01:52:55;101389.34;;;2.31;59.11
78643;BME280;67954;47.618;17.606;2023-02-28T01:53:32;101392.97;;;2.28;59.16
78643;BME280;67954;47.618;17.606;2023-02-28T01:54:08;101381.56;;;2.26;59.45
78643;BME280;67954;47.618;17.606;2023-02-28T01:54:49;101385.16;;;2.25;59.39
78643;BME280;67954;47.618;17.606;2023-02-28T01:55:22;101386.22;;;2.21;59.69
78643;BME280;67954;47.618;17.606;2023-02-28T01:55:59;101389.72;;;2.22;59.75
78643;BME280;67954;47.618;17.606;2023-02-28T01:56:33;101395.97;;;2.21;60.03
78643;BME280;67954;47.618;17.606;2023-02-28T01:57:10;101391.44;;;2.23;59.74
78643;BME280;67954;47.618;17.606;2023-02-28T01:57:48;101396.63;;;2.26;59.84
78643;BME280;67954;47.618;17.606;2023-02-28T01:58:20;101392.25;;;2.25;59.85
78643;BME280;67954;47.618;17.606;2023-02-28T01:58:53;101390.31;;;2.28;59.54
78643;BME280;67954;47.618;17.606;2023-02-28T01:59:28;101386.94;;;2.25;60.32
78643;BME280;67954;47.618;17.606;2023-02-28T02:00:05;101388.03;;;2.21;60.45
78643;BME280;67954;47.618;17.606;2023-02-28T02:00:38;101381.88;;;2.20;59.93
78643;BME280;67954;47.618;17.606;2023-02-28T02:01:11;101393.41;;;2.19;59.95
78643;BME280;67954;47.618;17.606;2023-02-28T02:01:51;101387.28;;;2.17;60.15
78643;BME280;67954;47.618;17.606;2023-02-28T02:02:23;101390.00;;;2.15;60.25
78643;BME280;67954;47.618;17.606;2023-02-28T02:02:58;101393.41;;;2.19;60.38
78643;BME280;67954;47.618;17.606;2023-02-28T02:03:31;101380.13;;;2.19;59.83
78643;BME280;67954;47.618;17.606;2023-02-28T02:04:03;101394.31;;;2.18;59.82
78643;BME280;67954;47.618;17.606;2023-02-28T02:04:39;101382.97;;;2.14;59.90
78643;BME280;67954;47.618;17.606;2023-02-28T02:05:17;101388.41;;;2.11;59.80
78643;BME280;67954;47.618;17.606;2023-02-28T02:05:50;101386.84;;;2.07;60.02
78643;BME280;67954;47.618;17.606;2023-02-28T02:06:21;101386.84;;;2.07;60.49
78643;BME280;67954;47.618;17.606;2023-02-28T02:06:53;101387.59;;;2.09;60.37
78643;BME280;67954;47.618;17.606;2023-02-28T02:07:26;101388.41;;;2.11;60.74
78643;BME280;67954;47.618;17.606;2023-02-28T02:08:03;101387.59;;;2.09;60.75
78643;BME280;67954;47.618;17.606;2023-02-28T02:08:36;101388.69;;;2.05;60.60
78643;BME280;67954;47.618;17.606;2023-02-28T02:09:07;101395.72;;;2.06;60.58
78643;BME280;67954;47.618;17.606;2023-02-28T02:09:38;101397.50;;;2.06;60.67
78643;BME280;67954;47.618;17.606;2023-02-28T02:10:15;101393.97;;;2.05;60.66
78643;BME280;67954;47.618;17.606;2023-02-28T02:10:49;101385.16;;;2.05;61.05
78643;BME280;67954;47.618;17.606;2023-02-28T02:11:23;101390.53;;;2.03;61.54
78643;BME280;67954;47.618;17.606;2023-02-28T02:11:56;101396.81;;;2.01;60.89
78643;BME280;67954;47.618;17.606;2023-02-28T02:12:40;101391.47;;;2.02;61.02
78643;BME280;67954;47.618;17.606;2023-02-28T02:13:28;101393.25;;;2.02;61.16
78643;BME280;67954;47.618;17.606;2023-02-28T02:14:28;101389.91;;;1.97;61.22
78643;BME280;67954;47.618;17.606;2023-02-28T02:15:09;101397.94;;;1.95;61.11
78643;BME280;67954;47.618;17.606;2023-02-28T02:15:52;101390.19;;;1.91;60.83
78643;BME280;67954;47.618;17.606;2023-02-28T02:16:37;101393.59;;;1.94;60.79
78643;BME280;67954;47.618;17.606;2023-02-28T02:17:21;101399.81;;;1.93;60.63
78643;BME280;67954;47.618;17.606;2023-02-28T02:18:01;101396.25;;;1.94;60.47
78643;BME280;67954;47.618;17.606;2023-02-28T02:18:40;101396.09;;;1.97;60.47
78643;BME280;67954;47.618;17.606;2023-02-28T02:19:40;101402.31;;;1.96;60.66
78643;BME280;67954;47.618;17.606;2023-02-28T02:20:44;101398.94;;;1.93;61.12
78643;BME280;67954;47.618;17.606;2023-02-28T02:21:52;101400.72;;;1.92;60.79
78643;BME280;67954;47.618;17.606;2023-02-28T02:22:49;101407.94;;;1.89;61.22
78643;BME280;67954;47.618;17.606;2023-02-28T02:25:04;101406.28;;;1.86;61.11
78643;BME280;67954;47.618;17.606;2023-02-28T02:25:45;101413.25;;;1.89;61.72
78643;BME280;67954;47.618;17.606;2023-02-28T02:27:32;101411.63;;;1.85;61.08
78643;BME280;67954;47.618;17.606;2023-02-28T02:28:37;101414.50;;;1.80;61.36
78643;BME280;67954;47.618;17.606;2023-02-28T02:29:43;101413.75;;;1.76;61.07
78643;BME280;67954;47.618;17.606;2023-02-28T02:30:45;101409.44;;;1.74;61.33
78643;BME280;67954;47.618;17.606;2023-02-28T02:31:39;101409.50;;;1.72;61.36
78643;BME280;67954;47.618;17.606;2023-02-28T02:32:28;101408.47;;;1.76;61.36
78643;BME280;67954;47.618;17.606;2023-02-28T02:33:26;101407.53;;;1.77;61.51
78643;BME280;67954;47.618;17.606;2023-02-28T02:35:13;101415.38;;;1.81;61.49
78643;BME280;67954;47.618;17.606;2023-02-28T02:35:52;101404.03;;;1.77;61.48
78643;BME280;67954;47.618;17.606;2023-02-28T02:36:29;101404.81;;;1.79;61.39
78643;BME280;67954;47.618;17.606;2023-02-28T02:37:11;101403.16;;;1.76;61.71
78643;BME280;67954;47.618;17.606;2023-02-28T02:37:51;101410.19;;;1.77;61.37
78643;BME280;67954;47.618;17.606;2023-02-28T02:38:32;101408.47;;;1.76;61.78
78643;BME280;67954;47.618;17.606;2023-02-28T02:39:13;101405.81;;;1.76;61.54
78643;BME280;67954;47.618;17.606;2023-02-28T02:39:52;101410.13;;;1.79;61.35
78643;BME280;67954;47.618;17.606;2023-02-28T02:40:30;101405.75;;;1.78;61.32
78643;BME280;67954;47.618;17.606;2023-02-28T02:41:08;101411.91;;;1.78;61.55
78643;BME280;67954;47.618;17.606;2023-02-28T02:41:48;101411.00;;;1.79;61.76
78643;BME280;67954;47.618;17.606;2023-02-28T02:42:25;101412.91;;;1.76;61.50
78643;BME280;67954;47.618;17.606;2023-02-28T02:43:02;101404.19;;;1.72;61.78
78643;BME280;67954;47.618;17.606;2023-02-28T02:43:40;101410.31;;;1.74;61.58
78643;BME280;67954;47.618;17.606;2023-02-28T02:44:20;101412.16;;;1.72;61.73
78643;BME280;67954;47.618;17.606;2023-02-28T02:44:58;101410.38;;;1.73;61.53
78643;BME280;67954;47.618;17.606;2023-02-28T02:45:36;101410.47;;;1.70;61.41
78643;BME280;67954;47.618;17.606;2023-02-28T02:46:14;101413.94;;;1.72;61.90
78643;BME280;67954;47.618;17.606;2023-02-28T02:46:51;101408.47;;;1.76;61.80
78643;BME280;67954;47.618;17.606;2023-02-28T02:47:26;101410.13;;;1.79;62.20
78643;BME280;67954;47.618;17.606;2023-02-28T02:48:00;101409.25;;;1.78;62.27
78643;BME280;67954;47.618;17.606;2023-02-28T02:48:38;101414.44;;;1.82;62.67
78643;BME280;67954;47.618;17.606;2023-02-28T02:49:15;101408.19;;;1.83;62.42
78643;BME280;67954;47.618;17.606;2023-02-28T02:49:51;101410.94;;;1.81;62.44
78643;BME280;67954;47.618;17.606;2023-02-28T02:50:29;101408.13;;;1.84;62.30
78643;BME280;67954;47.618;17.606;2023-02-28T02:51:06;101407.25;;;1.84;62.24
78643;BME280;67954;47.618;17.606;2023-02-28T02:51:44;101410.84;;;1.83;62.18
78643;BME280;67954;47.618;17.606;2023-02-28T02:52:22;101405.63;;;1.81;62.15
78643;BME280;67954;47.618;17.606;2023-02-28T02:53:00;101407.31;;;1.82;62.02
78643;BME280;67954;47.618;17.606;2023-02-28T02:53:39;101405.69;;;1.79;61.82
78643;BME280;67954;47.618;17.606;2023-02-28T02:54:14;101407.53;;;1.77;61.72
78643;BME280;67954;47.618;17.606;2023-02-28T02:54:50;101410.94;;;1.81;62.00
78643;BME280;67954;47.618;17.606;2023-02-28T02:55:25;101409.91;;;1.84;61.89
78643;BME280;67954;47.618;17.606;2023-02-28T02:55:57;101407.25;;;1.84;62.38
78643;BME280;67954;47.618;17.606;2023-02-28T02:56:32;101406.28;;;1.86;61.82
78643;BME280;67954;47.618;17.606;2023-02-28T02:57:10;101400.78;;;1.91;61.89
78643;BME280;67954;47.618;17.606;2023-02-28T02:57:47;101399.94;;;1.90;61.95
78643;BME280;67954;47.618;17.606;2023-02-28T02:58:24;101405.28;;;1.89;61.94
78643;BME280;67954;47.618;17.606;2023-02-28T02:59:01;101401.84;;;1.87;62.08
78643;BME280;67954;47.618;17.606;2023-02-28T02:59:35;101413.97;;;1.92;61.67
78643;BME280;67954;47.618;17.606;2023-02-28T03:00:10;101402.59;;;1.90;61.85
78643;BME280;67954;47.618;17.606;2023-02-28T03:00:45;101401.59;;;1.93;61.86
78643;BME280;67954;47.618;17.606;2023-02-28T03:01:21;101401.31;;;1.99;61.92
78643;BME280;67954;47.618;17.606;2023-02-28T03:02:01;101399.75;;;1.95;62.04
78643;BME280;67954;47.618;17.606;2023-02-28T03:02:35;101403.38;;;1.92;61.31
78643;BME280;67954;47.618;17.606;2023-02-28T03:03:09;101401.53;;;1.94;61.75
78643;BME280;67954;47.618;17.606;2023-02-28T03:03:43;101405.69;;;2.00;61.79